Time;durP1;ratioP1;P1;durP2;ratioP2;P2;SDS_P1;SDS_P2;PMS_P1;PMS_P2;Temp;Humidity;BMP_temperature;BMP_pressure;BME280_temperature;BME280_humidity;BME280_pressure;Samples;Min_cycle;Max_cycle;Signal;HPM_P1;HPM_P2
2024/02/05 00:01:47;;;;;;;2.17;1.15;;;;;;;;;;7419880;19;20341;-83
2024/02/05 00:04:50;;;;;;;;;;;;;;;;;;;;;
2024/02/05 00:08:00;;;;;;;3.63;1.05;;;;;;;;;;7418036;19;19918;-83
2024/02/05 00:11:26;;;;;;;;;;;;;;;;;;;;;
2024/02/05 00:14:35;;;;;;;1.92;0.93;;;;;;;;;;7417944;19;20261;-83
2024/02/05 00:18:03;;;;;;;;;;;;;;;;;;;;;
2024/02/05 00:25:17;;;;;;;1.15;0.70;;;;;;;;;;7416940;19;20356;-83
2024/02/05 00:28:07;;;;;;;1.45;0.95;;;;;;;;;;7418043;19;20235;-83
2024/02/05 00:30:59;;;;;;;2.17;1.10;;;;;;;;;;7418947;19;19941;-82
2024/02/05 00:33:49;;;;;;;1.17;0.80;;;;;;;;;;7418163;19;19922;-83
2024/02/05 00:36:34;;;;;;;1.10;0.80;;;;;;;;;;7418000;19;19930;-83
2024/02/05 00:39:24;;;;;;;1.83;0.90;;;;;;;;;;7417972;19;19949;-83
2024/02/05 00:42:11;;;;;;;1.83;0.90;;;;;;;;;;7419161;19;19915;-83
2024/02/05 00:45:09;;;;;;;1.52;0.85;;;;;;;;;;7416929;19;19950;-83
2024/02/05 00:48:02;;;;;;;1.67;0.90;;;;;;;;;;7416380;19;19923;-83
2024/02/05 00:50:47;;;;;;;1.50;0.90;;;;;;;;;;7418291;19;19930;-83
2024/02/05 00:53:32;;;;;;;1.63;0.95;;;;;;;;;;7416320;19;19966;-82
2024/02/05 00:56:20;;;;;;;2.92;1.27;;;;;;;;;;7416278;19;19923;-83
2024/02/05 00:59:14;;;;;;;1.25;1.00;;;;;;;;;;7416967;19;19918;-82
2024/02/05 01:02:01;;;;;;;1.52;0.90;;;;;;;;;;7418194;19;19926;-82
2024/02/05 01:04:45;;;;;;;1.67;1.20;;;;;;;;;;7416753;19;20230;-83
2024/02/05 01:07:30;;;;;;;1.80;1.30;;;;;;;;;;7412282;19;19978;-82
2024/02/05 01:10:15;;;;;;;1.60;1.10;;;;;;;;;;7416369;19;19965;-83
2024/02/05 01:13:01;;;;;;;2.40;1.20;;;;;;;;;;7417694;19;20265;-82
2024/02/05 01:15:49;;;;;;;2.00;1.17;;;;;;;;;;7416755;19;19929;-83
2024/02/05 01:18:39;;;;;;;2.25;1.40;;;;;;;;;;7415533;19;19929;-83
2024/02/05 01:21:26;;;;;;;3.08;1.52;;;;;;;;;;7418842;19;19923;-82
2024/02/05 01:24:11;;;;;;;1.60;1.00;;;;;;;;;;7416152;19;19956;-83
2024/02/05 01:26:56;;;;;;;1.35;0.95;;;;;;;;;;7417190;19;19952;-83
2024/02/05 01:29:44;;;;;;;2.10;1.20;;;;;;;;;;7416153;19;19930;-83
2024/02/05 01:32:28;;;;;;;1.95;1.13;;;;;;;;;;7417651;19;19939;-83
2024/02/05 01:35:17;;;;;;;1.58;1.13;;;;;;;;;;7414471;19;19926;-83
2024/02/05 01:38:04;;;;;;;1.98;1.13;;;;;;;;;;7414656;19;19919;-83
2024/02/05 01:40:51;;;;;;;1.95;1.25;;;;;;;;;;7417158;19;19919;-83
2024/02/05 01:43:36;;;;;;;1.73;1.17;;;;;;;;;;7415676;19;19939;-82
2024/02/05 01:46:25;;;;;;;2.00;1.13;;;;;;;;;;7416431;19;19932;-83
2024/02/05 01:49:10;;;;;;;2.90;1.35;;;;;;;;;;7416765;19;19981;-83
2024/02/05 01:51:59;;;;;;;1.58;1.05;;;;;;;;;;7418728;19;20000;-83
2024/02/05 01:54:50;;;;;;;1.42;0.95;;;;;;;;;;7418810;19;19933;-83
2024/02/05 01:57:43;;;;;;;2.00;0.93;;;;;;;;;;7419718;19;19941;-82
2024/02/05 02:00:31;;;;;;;1.85;1.13;;;;;;;;;;7419019;19;19930;-83
2024/02/05 02:03:16;;;;;;;1.63;1.00;;;;;;;;;;7418848;19;19915;-83
2024/02/05 02:06:01;;;;;;;2.55;1.00;;;;;;;;;;7420071;19;19942;-83
2024/02/05 02:08:48;;;;;;;2.80;1.02;;;;;;;;;;7420412;19;19936;-83
2024/02/05 02:11:36;;;;;;;;;;;;;;;;;;7421264;19;19954;-83
2024/02/05 02:14:24;;;;;;;1.67;0.93;;;;;;;;;;7418250;19;19927;-82
2024/02/05 02:17:13;;;;;;;2.92;1.40;;;;;;;;;;7418123;19;20307;-83
2024/02/05 02:20:00;;;;;;;1.05;0.80;;;;;;;;;;7421078;19;19982;-83
2024/02/05 02:22:55;;;;;;;4.40;0.93;;;;;;;;;;7423007;19;19933;-83
2024/02/05 02:25:52;;;;;;;3.60;0.98;;;;;;;;;;7420300;19;19914;-83
2024/02/05 02:28:37;;;;;;;1.20;0.65;;;;;;;;;;7420176;19;19915;-82
2024/02/05 02:31:23;;;;;;;3.25;0.90;;;;;;;;;;7421711;19;20602;-83
2024/02/05 02:34:12;;;;;;;1.08;0.80;;;;;;;;;;7419183;19;20004;-82
2024/02/05 02:37:03;;;;;;;2.38;0.98;;;;;;;;;;7420118;19;20265;-83
2024/02/05 02:39:53;;;;;;;1.23;0.70;;;;;;;;;;7423713;19;19922;-83
2024/02/05 02:42:44;;;;;;;1.73;0.93;;;;;;;;;;7421274;19;19919;-83
2024/02/05 02:45:32;;;;;;;1.95;0.85;;;;;;;;;;7423784;19;19945;-83
2024/02/05 02:48:32;;;;;;;1.52;0.88;;;;;;;;;;7425935;19;19927;-83
2024/02/05 02:51:21;;;;;;;3.35;0.93;;;;;;;;;;7422318;19;19956;-83
2024/02/05 02:54:09;;;;;;;2.50;1.08;;;;;;;;;;7426002;19;19984;-83
2024/02/05 02:56:54;;;;;;;1.35;0.98;;;;;;;;;;7421989;19;19950;-83
2024/02/05 02:59:42;;;;;;;2.33;1.00;;;;;;;;;;7425845;19;19918;-83
2024/02/05 03:02:30;;;;;;;4.25;1.33;;;;;;;;;;7420042;19;19982;-83
2024/02/05 03:05:16;;;;;;;2.22;1.05;;;;;;;;;;7418796;19;19933;-82
2024/02/05 03:08:00;;;;;;;5.57;1.25;;;;;;;;;;7410896;19;19921;-83
2024/02/05 03:10:50;;;;;;;1.92;1.20;;;;;;;;;;7416233;19;19926;-82
2024/02/05 03:13:34;;;;;;;4.15;1.17;;;;;;;;;;7413758;19;19922;-83
2024/02/05 03:16:22;;;;;;;2.65;1.30;;;;;;;;;;7413977;19;20007;-82
2024/02/05 03:19:08;;;;;;;2.88;1.17;;;;;;;;;;7415473;19;19975;-83
2024/02/05 03:21:53;;;;;;;1.80;1.20;;;;;;;;;;7416924;19;19911;-83
2024/02/05 03:24:39;;;;;;;3.13;1.08;;;;;;;;;;7415414;19;19935;-83
2024/02/05 03:27:25;;;;;;;4.70;1.00;;;;;;;;;;7413669;19;20361;-82
2024/02/05 03:30:11;;;;;;;2.47;1.00;;;;;;;;;;7413949;19;19922;-83
2024/02/05 03:33:01;;;;;;;3.05;1.67;;;;;;;;;;7416321;19;19936;-82
2024/02/05 03:35:48;;;;;;;5.28;1.13;;;;;;;;;;7413835;19;19926;-83
2024/02/05 03:38:34;;;;;;;4.30;1.25;;;;;;;;;;7412820;19;20397;-83
2024/02/05 03:41:18;;;;;;;1.35;0.70;;;;;;;;;;7410076;19;19919;-82
2024/02/05 03:44:03;;;;;;;3.83;1.30;;;;;;;;;;7410533;19;19976;-82
2024/02/05 03:46:47;;;;;;;1.50;0.80;;;;;;;;;;7410595;19;19929;-82
2024/02/05 03:49:34;;;;;;;3.78;1.10;;;;;;;;;;7413628;19;20007;-82
2024/02/05 03:52:18;;;;;;;2.83;1.00;;;;;;;;;;7411872;19;19911;-82
2024/02/05 03:55:02;;;;;;;3.00;1.08;;;;;;;;;;7411598;19;20265;-82
2024/02/05 03:57:48;;;;;;;2.75;1.00;;;;;;;;;;7407844;19;19932;-82
2024/02/05 04:00:35;;;;;;;2.08;1.20;;;;;;;;;;7409901;19;19933;-83
2024/02/05 04:03:24;;;;;;;2.88;1.52;;;;;;;;;;7411757;19;19974;-82
2024/02/05 04:06:15;;;;;;;2.40;1.30;;;;;;;;;;7411574;19;19914;-82
2024/02/05 04:09:00;;;;;;;3.30;1.20;;;;;;;;;;7411261;19;19934;-82
2024/02/05 04:11:44;;;;;;;2.17;1.38;;;;;;;;;;7408621;19;20378;-82
2024/02/05 04:14:31;;;;;;;3.28;1.23;;;;;;;;;;7409262;19;19929;-82
2024/02/05 04:17:17;;;;;;;4.85;1.27;;;;;;;;;;7409812;19;19931;-82
2024/02/05 04:20:05;;;;;;;2.78;1.20;;;;;;;;;;7416735;19;19995;-82
2024/02/05 04:22:52;;;;;;;4.03;1.13;;;;;;;;;;7417034;19;19922;-82
2024/02/05 04:25:39;;;;;;;3.65;1.45;;;;;;;;;;7416534;19;19919;-82
2024/02/05 04:28:23;;;;;;;1.92;0.90;;;;;;;;;;7415998;19;19915;-82
2024/02/05 04:31:13;;;;;;;5.60;1.50;;;;;;;;;;7417218;19;20323;-82
2024/02/05 04:34:01;;;;;;;2.85;1.48;;;;;;;;;;7415322;19;19926;-82
2024/02/05 04:36:48;;;;;;;2.28;1.30;;;;;;;;;;7414020;19;19934;-82
2024/02/05 04:39:35;;;;;;;4.57;1.20;;;;;;;;;;7415463;19;19923;-82
2024/02/05 04:42:22;;;;;;;2.22;1.15;;;;;;;;;;7416458;19;20623;-82
2024/02/05 04:45:10;;;;;;;2.67;0.80;;;;;;;;;;7416628;19;19915;-82
2024/02/05 04:47:57;;;;;;;3.40;1.17;;;;;;;;;;7415110;19;19914;-81
2024/02/05 04:50:43;;;;;;;2.22;1.38;;;;;;;;;;7416361;19;19914;-81
2024/02/05 04:53:28;;;;;;;3.42;1.00;;;;;;;;;;7415082;19;20554;-82
2024/02/05 04:56:14;;;;;;;6.72;1.17;;;;;;;;;;7413401;19;20652;-81
2024/02/05 04:59:01;;;;;;;2.33;1.30;;;;;;;;;;7417597;19;19911;-81
2024/02/05 05:01:47;;;;;;;6.03;1.38;;;;;;;;;;7415127;19;19998;-81
2024/02/05 05:04:34;;;;;;;1.27;0.93;;;;;;;;;;7417461;19;19922;-81
2024/02/05 05:07:18;;;;;;;2.83;1.17;;;;;;;;;;7415360;19;20522;-82
2024/02/05 05:10:06;;;;;;;2.17;1.00;;;;;;;;;;7416192;19;19918;-82
2024/02/05 05:12:55;;;;;;;4.15;1.10;;;;;;;;;;7414776;19;19915;-82
2024/02/05 05:15:41;;;;;;;2.63;1.08;;;;;;;;;;7414260;19;19927;-82
2024/02/05 05:18:27;;;;;;;2.45;1.25;;;;;;;;;;7415834;19;19930;-82
2024/02/05 05:21:12;;;;;;;2.53;1.20;;;;;;;;;;7416206;19;19953;-83
2024/02/05 05:23:56;;;;;;;3.70;1.38;;;;;;;;;;7415586;19;19986;-82
2024/02/05 05:26:43;;;;;;;2.28;1.20;;;;;;;;;;7413612;19;19922;-82
2024/02/05 05:29:32;;;;;;;6.15;1.35;;;;;;;;;;7415285;19;19931;-82
2024/02/05 05:32:22;;;;;;;1.23;0.82;;;;;;;;;;7415878;19;19915;-82
2024/02/05 05:35:11;;;;;;;2.75;1.40;;;;;;;;;;7416917;19;19922;-83
2024/02/05 05:37:55;;;;;;;3.05;1.75;;;;;;;;;;7412853;19;20011;-82
2024/02/05 05:40:42;;;;;;;2.90;1.52;;;;;;;;;;7415507;19;20277;-82
2024/02/05 05:43:28;;;;;;;3.15;1.40;;;;;;;;;;7416391;19;19915;-82
2024/02/05 05:46:15;;;;;;;2.17;1.27;;;;;;;;;;7415267;19;19911;-82
2024/02/05 05:48:59;;;;;;;1.75;1.10;;;;;;;;;;7416429;19;19925;-81
2024/02/05 05:51:45;;;;;;;2.83;1.40;;;;;;;;;;7417308;19;19906;-82
2024/02/05 05:54:32;;;;;;;2.58;1.48;;;;;;;;;;7418142;19;19922;-82
2024/02/05 05:57:19;;;;;;;3.38;1.10;;;;;;;;;;7415271;19;20011;-82
2024/02/05 06:00:08;;;;;;;4.10;1.30;;;;;;;;;;7415670;19;19919;-82
2024/02/05 06:02:56;;;;;;;3.70;1.13;;;;;;;;;;7416959;19;20384;-82
2024/02/05 06:05:45;;;;;;;2.72;1.35;;;;;;;;;;7413890;19;19944;-82
2024/02/05 06:08:29;;;;;;;4.85;1.27;;;;;;;;;;7416314;19;19990;-82
2024/02/05 06:11:14;;;;;;;5.63;1.52;;;;;;;;;;7415273;19;19931;-81
2024/02/05 06:14:00;;;;;;;2.97;1.60;;;;;;;;;;7414714;19;19922;-81
2024/02/05 06:16:47;;;;;;;2.95;1.08;;;;;;;;;;7412834;19;19918;-81
2024/02/05 06:19:34;;;;;;;3.35;1.25;;;;;;;;;;7413427;19;19914;-81
2024/02/05 06:22:18;;;;;;;2.92;1.30;;;;;;;;;;7416029;19;19922;-83
2024/02/05 06:25:09;;;;;;;2.75;1.20;;;;;;;;;;7416797;19;19918;-82
2024/02/05 06:27:53;;;;;;;2.65;1.27;;;;;;;;;;7413303;19;19926;-81
2024/02/05 06:30:47;;;;;;;2.30;1.13;;;;;;;;;;7412785;19;19956;-82
2024/02/05 06:33:34;;;;;;;1.45;1.10;;;;;;;;;;7416885;19;19946;-82
2024/02/05 06:36:21;;;;;;;1.20;1.00;;;;;;;;;;7412460;19;19922;-82
2024/02/05 06:39:10;;;;;;;1.75;1.13;;;;;;;;;;7416312;19;19928;-82
2024/02/05 06:41:54;;;;;;;4.65;1.30;;;;;;;;;;7413260;19;19929;-82
2024/02/05 06:44:45;;;;;;;2.15;0.98;;;;;;;;;;7417243;19;19929;-81
2024/02/05 06:47:31;;;;;;;2.50;1.20;;;;;;;;;;7414559;19;20410;-82
2024/02/05 06:50:18;;;;;;;2.50;0.85;;;;;;;;;;7414931;19;19911;-81
2024/02/05 06:53:05;;;;;;;3.05;1.25;;;;;;;;;;7413129;19;19918;-81
2024/02/05 06:55:49;;;;;;;5.13;1.10;;;;;;;;;;7412162;19;19934;-81
2024/02/05 06:58:33;;;;;;;3.05;1.30;;;;;;;;;;7412306;19;19933;-82
2024/02/05 07:01:21;;;;;;;1.25;0.93;;;;;;;;;;7411698;19;19910;-82
2024/02/05 07:04:08;;;;;;;2.63;1.27;;;;;;;;;;7414137;19;19915;-82
2024/02/05 07:06:52;;;;;;;5.10;1.10;;;;;;;;;;7418531;19;19919;-81
2024/02/05 07:09:44;;;;;;;1.48;1.00;;;;;;;;;;7423347;19;19918;-81
2024/02/05 07:12:28;;;;;;;1.83;0.80;;;;;;;;;;7427596;19;19921;-81
2024/02/05 07:15:20;;;;;;;3.08;1.00;;;;;;;;;;7429195;19;20173;-81
2024/02/05 07:18:07;;;;;;;3.40;0.88;;;;;;;;;;7421969;19;19923;-82
2024/02/05 07:20:51;;;;;;;1.60;0.93;;;;;;;;;;7419144;19;20375;-82
2024/02/05 07:23:38;;;;;;;1.30;0.93;;;;;;;;;;7414034;19;20259;-81
2024/02/05 07:26:25;;;;;;;4.95;1.20;;;;;;;;;;7413112;19;19918;-81
2024/02/05 07:29:14;;;;;;;2.28;0.90;;;;;;;;;;7415160;19;19926;-80
2024/02/05 07:32:01;;;;;;;4.10;0.98;;;;;;;;;;7416249;19;19922;-81
2024/02/05 07:34:47;;;;;;;2.75;1.00;;;;;;;;;;7412708;19;19923;-81
2024/02/05 07:37:37;;;;;;;2.67;1.05;;;;;;;;;;7410519;19;19919;-82
2024/02/05 07:40:21;;;;;;;2.22;0.60;;;;;;;;;;7412204;19;19919;-81
2024/02/05 07:43:10;;;;;;;3.38;1.42;;;;;;;;;;7412756;19;19915;-81
2024/02/05 07:45:57;;;;;;;1.75;1.00;;;;;;;;;;7410780;19;19918;-82
2024/02/05 07:48:41;;;;;;;2.05;0.93;;;;;;;;;;7412258;19;19918;-82
2024/02/05 07:51:28;;;;;;;2.15;1.25;;;;;;;;;;7414063;19;20550;-81
2024/02/05 07:54:12;;;;;;;3.15;1.00;;;;;;;;;;7416847;19;19922;-81
2024/02/05 07:57:02;;;;;;;2.25;1.00;;;;;;;;;;7416830;19;20418;-83
2024/02/05 07:59:51;;;;;;;3.80;0.88;;;;;;;;;;7420328;19;20177;-81
2024/02/05 08:02:38;;;;;;;2.08;0.77;;;;;;;;;;7420332;19;20239;-82
2024/02/05 08:05:25;;;;;;;2.53;0.90;;;;;;;;;;7419615;19;19915;-81
2024/02/05 08:08:09;;;;;;;2.58;0.90;;;;;;;;;;7420240;19;19959;-81
2024/02/05 08:10:56;;;;;;;5.28;1.38;;;;;;;;;;7418288;19;19918;-81
2024/02/05 08:13:44;;;;;;;1.48;0.90;;;;;;;;;;7421588;19;19907;-81
2024/02/05 08:16:31;;;;;;;2.85;0.82;;;;;;;;;;7418340;19;19914;-81
2024/02/05 08:19:16;;;;;;;2.50;0.88;;;;;;;;;;7419123;19;19931;-82
2024/02/05 08:22:02;;;;;;;2.20;0.98;;;;;;;;;;7420617;19;19922;-81
2024/02/05 08:24:47;;;;;;;3.50;1.38;;;;;;;;;;7414943;19;19910;-80
2024/02/05 08:27:31;;;;;;;4.05;1.17;;;;;;;;;;7416245;19;19910;-81
2024/02/05 08:30:20;;;;;;;2.55;1.00;;;;;;;;;;7416831;19;19929;-81
2024/02/05 08:33:13;;;;;;;3.17;1.45;;;;;;;;;;7414807;19;19926;-81
2024/02/05 08:36:02;;;;;;;2.65;1.00;;;;;;;;;;7413218;19;19946;-82
2024/02/05 08:38:49;;;;;;;6.72;1.25;;;;;;;;;;7418612;19;19906;-81
2024/02/05 08:41:35;;;;;;;4.85;1.20;;;;;;;;;;7419505;19;19979;-82
2024/02/05 08:44:24;;;;;;;4.15;0.95;;;;;;;;;;7417746;19;20381;-82
2024/02/05 08:47:10;;;;;;;2.83;1.38;;;;;;;;;;7417102;19;19918;-80
2024/02/05 08:50:02;;;;;;;4.32;0.90;;;;;;;;;;7413102;19;19982;-81
2024/02/05 08:52:48;;;;;;;2.97;1.30;;;;;;;;;;7412818;19;19911;-81
2024/02/05 08:55:35;;;;;;;2.72;1.00;;;;;;;;;;7410578;19;19934;-81
2024/02/05 08:58:19;;;;;;;2.33;0.95;;;;;;;;;;7412475;19;19915;-81
2024/02/05 09:01:06;;;;;;;2.83;0.82;;;;;;;;;;7415072;19;19922;-81
2024/02/05 09:03:53;;;;;;;3.35;1.00;;;;;;;;;;7413800;19;19919;-82
2024/02/05 09:06:40;;;;;;;4.72;1.30;;;;;;;;;;7412989;19;19910;-82
2024/02/05 09:09:26;;;;;;;3.65;0.98;;;;;;;;;;7414179;19;19918;-81
2024/02/05 09:12:13;;;;;;;3.25;0.90;;;;;;;;;;7414604;19;19927;-81
2024/02/05 09:14:58;;;;;;;1.38;0.98;;;;;;;;;;7414817;19;19911;-80
2024/02/05 09:17:49;;;;;;;2.17;1.05;;;;;;;;;;7412383;19;19925;-80
2024/02/05 09:20:36;;;;;;;1.75;0.80;;;;;;;;;;7412732;19;20336;-80
2024/02/05 09:23:22;;;;;;;1.30;0.85;;;;;;;;;;7412806;19;19938;-81
2024/02/05 09:26:07;;;;;;;3.88;1.23;;;;;;;;;;7411896;19;19929;-81
2024/02/05 09:28:52;;;;;;;4.78;0.93;;;;;;;;;;7414124;19;20333;-81
2024/02/05 09:31:38;;;;;;;2.03;1.15;;;;;;;;;;7413452;19;19919;-80
2024/02/05 09:34:22;;;;;;;5.05;1.23;;;;;;;;;;7412924;19;19982;-81
2024/02/05 09:37:13;;;;;;;2.72;1.42;;;;;;;;;;7410735;19;19926;-80
2024/02/05 09:40:02;;;;;;;4.45;1.05;;;;;;;;;;7411812;19;20236;-81
2024/02/05 10:29:48;;;;;;;5.97;2.42;;;;;;;;;;6898510;19;10659385;-82
2024/02/05 10:36:30;;;;;;;6.15;1.77;;;;;;;;;;7443376;19;19923;-82
2024/02/05 11:22:35;;;;;;;10.15;2.10;;;;;;;;;;7442795;19;19915;-82
2024/02/05 11:25:55;;;;;;;4.95;1.60;;;;;;;;;;7447744;19;19930;-82
2024/02/05 11:28:57;;;;;;;4.28;1.23;;;;;;;;;;7440189;19;19918;-82
2024/02/05 11:35:34;;;;;;;4.40;1.60;;;;;;;;;;7444583;19;19966;-82
2024/02/05 11:38:52;;;;;;;5.70;2.25;;;;;;;;;;7435317;19;20354;-82
2024/02/05 12:05:54;;;;;;;6.85;1.60;;;;;;;;;;7415189;19;20443;-83
2024/02/05 12:08:42;;;;;;;3.15;1.55;;;;;;;;;;7411826;19;19951;-83
2024/02/05 12:11:41;;;;;;;7.50;2.25;;;;;;;;;;7418398;19;19937;-83
2024/02/05 12:14:39;;;;;;;5.68;1.92;;;;;;;;;;7420996;19;19922;-83
2024/02/05 12:18:25;;;;;;;6.05;1.60;;;;;;;;;;7417207;19;20264;-83
2024/02/05 12:21:56;;;;;;;;;;;;;;;;;;7421507;19;19934;-83
2024/02/05 12:25:21;;;;;;;;;;;;;;;;;;;;;
2024/02/05 13:25:40;;;;;;;7.20;1.70;;;;;;;;;;7411279;19;19951;-83
2024/02/05 14:43:46;;;;;;;5.05;1.40;;;;;;;;;;7436635;19;19915;-83
2024/02/05 14:50:06;;;;;;;4.43;1.48;;;;;;;;;;7423368;19;19949;-83
2024/02/05 14:52:51;;;;;;;6.60;1.65;;;;;;;;;;7420559;19;19915;-83
2024/02/05 14:55:38;;;;;;;5.43;1.40;;;;;;;;;;7418049;19;19929;-83
2024/02/05 14:58:23;;;;;;;5.22;1.20;;;;;;;;;;7416786;19;20013;-83
2024/02/05 15:01:11;;;;;;;3.13;1.38;;;;;;;;;;7416648;19;19970;-83
2024/02/05 15:03:56;;;;;;;4.85;1.23;;;;;;;;;;7416128;19;19910;-83
2024/02/05 15:30:34;;;;;;;4.50;2.03;;;;;;;;;;7416350;19;20226;-83
2024/02/05 15:33:19;;;;;;;7.80;1.38;;;;;;;;;;7419969;19;19927;-83
2024/02/05 15:36:04;;;;;;;3.10;1.13;;;;;;;;;;7418373;19;19911;-83
2024/02/05 15:38:49;;;;;;;5.45;1.63;;;;;;;;;;7419700;19;19930;-83
2024/02/05 15:41:33;;;;;;;3.47;1.00;;;;;;;;;;7416836;19;19923;-81
2024/02/05 15:44:23;;;;;;;4.60;1.50;;;;;;;;;;7424710;19;20344;-81
2024/02/05 15:47:12;;;;;;;3.97;1.75;;;;;;;;;;7423602;19;20341;-81
2024/02/05 15:49:59;;;;;;;4.97;1.40;;;;;;;;;;7426581;19;19926;-81
2024/02/05 15:52:48;;;;;;;3.92;1.42;;;;;;;;;;7425915;19;19922;-81
2024/02/05 15:55:35;;;;;;;8.05;1.63;;;;;;;;;;7423414;19;19930;-81
2024/02/05 15:58:22;;;;;;;3.38;1.75;;;;;;;;;;7424859;19;19915;-81
2024/02/05 16:01:09;;;;;;;5.68;1.60;;;;;;;;;;7425407;19;19950;-81
2024/02/05 16:03:58;;;;;;;7.60;1.40;;;;;;;;;;7425611;19;19923;-81
2024/02/05 16:06:43;;;;;;;6.00;1.60;;;;;;;;;;7421688;19;19919;-82
2024/02/05 16:09:27;;;;;;;4.70;1.35;;;;;;;;;;7422720;19;19947;-82
2024/02/05 16:12:13;;;;;;;6.75;1.73;;;;;;;;;;7425729;19;19914;-82
2024/02/05 16:14:58;;;;;;;4.60;1.55;;;;;;;;;;7424968;19;19911;-82
2024/02/05 16:17:42;;;;;;;5.18;1.65;;;;;;;;;;7425064;19;19922;-81
2024/02/05 16:20:30;;;;;;;3.05;1.50;;;;;;;;;;7425741;19;19930;-81
2024/02/05 16:23:17;;;;;;;6.30;1.40;;;;;;;;;;7424731;19;19925;-81
2024/02/05 16:26:02;;;;;;;4.15;1.23;;;;;;;;;;7422586;19;19919;-81
2024/02/05 16:28:46;;;;;;;2.83;1.70;;;;;;;;;;7423435;19;19920;-81
2024/02/05 16:31:35;;;;;;;7.75;2.42;;;;;;;;;;7424167;19;19918;-81
2024/02/05 16:34:22;;;;;;;9.15;2.03;;;;;;;;;;7424771;19;20300;-81
2024/02/05 16:37:09;;;;;;;7.90;1.85;;;;;;;;;;7424624;19;19906;-81
2024/02/05 16:39:54;;;;;;;5.07;2.53;;;;;;;;;;7425403;19;19911;-82
2024/02/05 16:42:40;;;;;;;6.57;2.17;;;;;;;;;;7424746;19;19922;-82
2024/02/05 16:45:25;;;;;;;3.05;1.67;;;;;;;;;;7424508;19;19922;-81
2024/02/05 16:48:10;;;;;;;3.72;1.17;;;;;;;;;;7424184;19;19922;-81
2024/02/05 16:50:59;;;;;;;2.75;1.23;;;;;;;;;;7425097;19;19915;-81
2024/02/05 16:53:50;;;;;;;4.45;1.50;;;;;;;;;;7424734;19;19933;-81
2024/02/05 16:56:34;;;;;;;4.97;1.27;;;;;;;;;;7423566;19;19917;-81
2024/02/05 16:59:18;;;;;;;6.25;1.70;;;;;;;;;;7424896;19;19947;-81
2024/02/05 17:02:05;;;;;;;5.10;1.40;;;;;;;;;;7425504;19;19922;-82
2024/02/05 17:04:49;;;;;;;6.65;1.48;;;;;;;;;;7426879;19;19982;-82
2024/02/05 17:07:35;;;;;;;1.95;1.15;;;;;;;;;;7421143;19;19927;-81
2024/02/05 17:10:25;;;;;;;3.35;1.30;;;;;;;;;;7425347;19;19922;-81
2024/02/05 17:13:09;;;;;;;4.88;1.40;;;;;;;;;;7425328;19;19927;-81
2024/02/05 17:15:53;;;;;;;4.18;1.25;;;;;;;;;;7423277;19;19922;-81
2024/02/05 17:18:40;;;;;;;4.40;1.42;;;;;;;;;;7414350;19;20085;-82
2024/02/05 17:21:24;;;;;;;4.40;1.75;;;;;;;;;;7425654;19;20389;-81
2024/02/05 17:24:12;;;;;;;4.60;1.40;;;;;;;;;;7425356;19;19929;-82
2024/02/05 17:27:00;;;;;;;2.72;1.33;;;;;;;;;;7421892;19;19910;-81
2024/02/05 17:29:44;;;;;;;3.03;1.50;;;;;;;;;;7413689;19;20006;-81
2024/02/05 17:32:31;;;;;;;4.97;1.30;;;;;;;;;;7420670;19;19985;-82
2024/02/05 17:35:16;;;;;;;7.15;1.77;;;;;;;;;;7424212;19;19946;-82
2024/02/05 17:38:04;;;;;;;4.82;1.70;;;;;;;;;;7418681;19;19958;-82
2024/02/05 17:40:50;;;;;;;4.55;1.70;;;;;;;;;;7424453;19;19921;-82
2024/02/05 17:43:39;;;;;;;1.95;1.13;;;;;;;;;;7424880;19;19958;-82
2024/02/05 17:46:24;;;;;;;4.50;1.40;;;;;;;;;;7419662;19;19927;-82
2024/02/05 17:49:08;;;;;;;7.22;1.80;;;;;;;;;;7417619;19;19948;-82
2024/02/05 17:51:52;;;;;;;7.05;2.20;;;;;;;;;;7419259;19;19922;-82
2024/02/05 17:54:43;;;;;;;5.22;2.20;;;;;;;;;;7419183;19;19939;-82
2024/02/05 17:57:27;;;;;;;5.88;2.25;;;;;;;;;;7420273;19;19911;-82
2024/02/05 18:00:16;;;;;;;3.85;1.35;;;;;;;;;;7421838;19;19923;-82
2024/02/05 18:03:00;;;;;;;3.55;1.67;;;;;;;;;;7422340;19;19946;-82
2024/02/05 18:05:45;;;;;;;6.03;2.05;;;;;;;;;;7441546;19;19926;-83
2024/02/05 18:08:31;;;;;;;5.28;2.10;;;;;;;;;;7442300;19;19928;-81
2024/02/05 18:11:15;;;;;;;6.10;2.60;;;;;;;;;;7443050;19;19942;-81
2024/02/05 18:14:00;;;;;;;5.82;2.42;;;;;;;;;;7442784;19;19937;-81
2024/02/05 18:16:49;;;;;;;6.72;3.30;;;;;;;;;;7428830;19;19927;-81
2024/02/05 18:19:33;;;;;;;6.20;3.90;;;;;;;;;;7428369;19;19907;-81
2024/02/05 18:22:20;;;;;;;6.22;3.28;;;;;;;;;;7413333;19;19930;-81
2024/02/05 18:25:04;;;;;;;8.43;3.90;;;;;;;;;;7411080;19;20273;-81
2024/02/05 18:27:49;;;;;;;9.10;3.85;;;;;;;;;;7407493;19;19936;-82
2024/02/05 18:30:37;;;;;;;4.63;2.65;;;;;;;;;;7410129;19;20251;-81
2024/02/05 18:33:26;;;;;;;4.70;2.35;;;;;;;;;;7409737;19;19914;-82
2024/02/05 18:36:12;;;;;;;6.03;2.00;;;;;;;;;;7410238;19;19922;-82
2024/02/05 18:38:59;;;;;;;3.92;1.85;;;;;;;;;;7409185;19;20268;-82
2024/02/05 18:41:46;;;;;;;6.22;2.40;;;;;;;;;;7410596;19;19917;-81
2024/02/05 18:44:30;;;;;;;5.25;2.65;;;;;;;;;;7408390;19;19918;-81
2024/02/05 18:47:16;;;;;;;4.03;2.15;;;;;;;;;;7409260;19;20337;-81
2024/02/05 18:50:03;;;;;;;3.15;2.17;;;;;;;;;;7411775;19;19931;-81
2024/02/05 18:52:48;;;;;;;3.95;1.75;;;;;;;;;;7416726;19;19922;-81
2024/02/05 18:55:33;;;;;;;3.60;1.73;;;;;;;;;;7416786;19;19939;-81
2024/02/05 18:58:18;;;;;;;2.63;1.65;;;;;;;;;;7417389;19;20337;-81
2024/02/05 19:01:02;;;;;;;4.80;2.00;;;;;;;;;;7416862;19;19926;-81
2024/02/05 19:03:47;;;;;;;3.20;1.67;;;;;;;;;;7419290;19;19926;-80
2024/02/05 19:06:36;;;;;;;5.70;2.03;;;;;;;;;;7414257;19;19947;-81
2024/02/05 19:09:20;;;;;;;4.05;2.28;;;;;;;;;;7412925;19;19978;-81
2024/02/05 19:12:07;;;;;;;7.30;2.53;;;;;;;;;;7418736;19;19914;-81
2024/02/05 19:14:56;;;;;;;3.58;1.95;;;;;;;;;;7417925;19;19915;-81
2024/02/05 19:17:40;;;;;;;5.82;2.10;;;;;;;;;;7412356;19;19932;-81
2024/02/05 19:20:27;;;;;;;6.47;2.97;;;;;;;;;;7416091;19;19922;-81
2024/02/05 19:23:17;;;;;;;5.78;2.55;;;;;;;;;;7416409;19;19919;-82
2024/02/05 19:26:01;;;;;;;8.05;1.90;;;;;;;;;;7415702;19;19914;-82
2024/02/05 19:28:48;;;;;;;6.47;2.42;;;;;;;;;;7413013;19;19922;-81
2024/02/05 19:31:33;;;;;;;5.38;1.80;;;;;;;;;;7414603;19;20270;-81
2024/02/05 19:34:17;;;;;;;4.10;2.25;;;;;;;;;;7414658;19;19922;-80
2024/02/05 19:37:02;;;;;;;6.93;2.30;;;;;;;;;;7412617;19;19914;-81
2024/02/05 19:39:48;;;;;;;3.33;1.77;;;;;;;;;;7414001;19;20006;-81
2024/02/05 19:42:35;;;;;;;5.40;2.05;;;;;;;;;;7413582;19;19935;-81
2024/02/05 19:45:21;;;;;;;6.95;2.45;;;;;;;;;;7414589;19;19919;-81
2024/02/05 19:48:08;;;;;;;4.05;2.22;;;;;;;;;;7412831;19;20321;-81
2024/02/05 19:50:54;;;;;;;6.55;2.97;;;;;;;;;;7414592;19;19939;-81
2024/02/05 19:53:43;;;;;;;4.15;2.08;;;;;;;;;;7416360;19;19918;-81
2024/02/05 19:56:30;;;;;;;5.60;2.42;;;;;;;;;;7415716;19;19930;-81
2024/02/05 19:59:14;;;;;;;4.80;2.38;;;;;;;;;;7413824;19;19943;-81
2024/02/05 20:02:01;;;;;;;3.15;1.95;;;;;;;;;;7414803;19;19919;-81
2024/02/05 20:04:48;;;;;;;4.78;2.42;;;;;;;;;;7415740;19;19946;-81
2024/02/05 20:07:34;;;;;;;8.77;2.42;;;;;;;;;;7411770;19;19933;-81
2024/02/05 20:10:19;;;;;;;9.57;3.35;;;;;;;;;;7412785;19;19918;-80
2024/02/05 20:13:06;;;;;;;5.85;2.50;;;;;;;;;;7415254;19;20327;-81
2024/02/05 20:15:53;;;;;;;7.20;3.08;;;;;;;;;;7413384;19;20275;-80
2024/02/05 20:18:40;;;;;;;14.20;4.13;;;;;;;;;;7414968;19;19925;-80
2024/02/05 20:21:28;;;;;;;7.82;2.67;;;;;;;;;;7414683;19;19978;-81
2024/02/05 20:24:13;;;;;;;10.27;2.58;;;;;;;;;;7413092;19;19922;-80
2024/02/05 20:27:02;;;;;;;5.78;2.40;;;;;;;;;;7409817;19;19917;-81
2024/02/05 20:29:49;;;;;;;12.48;2.92;;;;;;;;;;7410057;19;20343;-81
2024/02/05 20:32:33;;;;;;;5.45;2.75;;;;;;;;;;7410969;19;19914;-81
2024/02/05 20:35:20;;;;;;;10.07;3.67;;;;;;;;;;7411152;19;19917;-80
2024/02/05 20:38:07;;;;;;;8.15;3.53;;;;;;;;;;7412781;19;19915;-82
2024/02/05 20:40:53;;;;;;;9.30;3.17;;;;;;;;;;7415429;19;20336;-82
2024/02/05 20:43:40;;;;;;;7.28;3.00;;;;;;;;;;7411077;19;19914;-82
2024/02/05 20:46:29;;;;;;;7.47;3.33;;;;;;;;;;7404717;19;20258;-82
2024/02/05 20:49:16;;;;;;;7.03;3.42;;;;;;;;;;7414267;19;19919;-82
2024/02/05 20:52:05;;;;;;;7.30;3.47;;;;;;;;;;7416402;19;20353;-82
2024/02/05 20:54:50;;;;;;;6.05;2.83;;;;;;;;;;7411661;19;19978;-81
2024/02/05 20:57:34;;;;;;;7.10;2.45;;;;;;;;;;7409900;19;19930;-81
2024/02/05 21:00:20;;;;;;;8.48;3.05;;;;;;;;;;7410840;19;20270;-81
2024/02/05 21:03:07;;;;;;;12.35;3.78;;;;;;;;;;7410767;19;19934;-82
2024/02/05 21:05:51;;;;;;;6.28;3.10;;;;;;;;;;7410632;19;19970;-82
2024/02/05 21:08:36;;;;;;;7.85;3.30;;;;;;;;;;7411251;19;19921;-82
2024/02/05 21:11:24;;;;;;;8.35;3.80;;;;;;;;;;7408441;19;19919;-82
2024/02/05 21:14:08;;;;;;;5.82;3.60;;;;;;;;;;7410629;19;19935;-82
2024/02/05 21:16:58;;;;;;;6.70;3.03;;;;;;;;;;7411220;19;20248;-82
2024/02/05 21:19:47;;;;;;;10.15;3.05;;;;;;;;;;7411817;19;19922;-82
2024/02/05 21:22:34;;;;;;;8.93;3.42;;;;;;;;;;7414687;19;19919;-82
2024/02/05 21:25:20;;;;;;;12.30;3.30;;;;;;;;;;7411576;19;19936;-81
2024/02/05 21:28:08;;;;;;;18.33;4.72;;;;;;;;;;7411909;19;19918;-81
2024/02/05 21:30:53;;;;;;;6.13;3.58;;;;;;;;;;7411277;19;19929;-81
2024/02/05 21:33:37;;;;;;;8.82;3.25;;;;;;;;;;7413511;19;19997;-81
2024/02/05 21:36:24;;;;;;;9.38;3.95;;;;;;;;;;7409185;19;19925;-81
2024/02/05 21:39:14;;;;;;;11.60;3.67;;;;;;;;;;7409833;19;19942;-82